Afyon, Turkey

2:38 AM EEST on September 01, 2015 (GMT +0300)
Suleyman Demirel | | Change Station
CLOSE
Current Station
Airport
Location: Suleyman Demirel,
Elevation: 2835 ft
Nearby Weather Stations

Elev 2835 ft 37.86 °N, 30.37 °E | Updated 18 minutes ago

Clear
Clear
64 °F
Feels Like 64 °F
N
0
Wind Variable Wind from North

Today
High -- | Low -- °F
--% Chance of Precip.
Yesterday
High -- | Low -- °F
Precip. -- in
6:26 AM 7:28 PM
Waning Gibbous, 93% visible
Pressure 30.06 in
Visibility -9999.0 miles
Clouds
Dew Point 43 °F
Humidity 45%
Rainfall 0.00 in
Snow Depth Not available.
UV Not available.
Pollen Not available.
Air Quality Not available.
Flu Activity Not available.
METAR LTFC 312320Z 00000KT CAVOK 18/06 Q1018
Pressure 30.06 in
Visibility -9999.0 miles
Clouds
Dew Point 43 °F
Humidity 45%
Rainfall 0.00 in
Snow Depth Not available.
UV Not available.
Pollen Not available.
Air Quality Not available.
Flu Activity Not available.
METAR LTFC 312320Z 00000KT CAVOK 18/06 Q1018

10-Day Weather Forecast

×

Almanac

Astronomy

Sep. 01, 2015 Rise Set
Actual Time
Civil Twilight
Nautical Twilight
Astronomical Twilight
Moon
Length of Visible Light
Length of Day
Tomorrow will be .
, % of the Moon is Illuminated

Today's Extremes

Country Highs Country Lows

Community

WunderPhotos

Upload Photos

1,851,394 photos uploaded!

WunderBlogs® & News

Nearby

Air Quality

  Air Quality AQ Index Pollutant
Not available.

Snow Depth

Station Depth Elevation

Earthquake Activity

City Distance Mag. Time & Date
Minimum magnitude displayed is 2.5.

Coastal Water Temperatures

Place Temperature

Stations

Nearby Weather Stations

Station Location Temp. Windchill Dew Point Humidity Wind Precip. Elev Updated Type